METAR Data
IDs: Format: Raw Decoded Include TAF

Data at: 2339 UTC 26 Feb 2020

KPEA 262335Z AUTO 34007KT 10SM CLR 00/M09 A3027 RMK AO2 T00001090
KPEA 262315Z AUTO 34009G16KT 10SM CLR 00/M10 A3026 RMK AO2 T00011097
KPEA 262255Z AUTO 35011G21KT 10SM CLR 01/M10 A3026 RMK AO2 T00051103
KPEA 262235Z AUTO 33017G21KT 10SM CLR 00/M10 A3026 RMK AO2 T00041101
KPEA 262215Z AUTO 34015KT 10SM SCT047 01/M10 A3026 RMK AO2 T00121097
KPEA 262155Z AUTO 35011G21KT 10SM BKN045 02/M09 A3026 RMK AO2 T00151093
KPEA 262135Z AUTO 33015G21KT 10SM BKN045 02/M08 A3025 RMK AO2 T00191083
KPEA 262115Z AUTO 35011G15KT 10SM BKN041 01/M08 A3025 RMK AO2 T00101080
KPEA 262055Z AUTO 34012G16KT 10SM SCT034 SCT040 SCT047 01/M06 A3026 RMK AO2 T00071065
KPEA 262035Z AUTO 34015G18KT 10SM SCT033 BKN041 BKN047 00/M06 A3026 RMK AO2 T00021065
KPEA 262015Z AUTO 33010G16KT 10SM SCT036 SCT043 00/M06 A3026 RMK AO2 T00001060
KPEA 261955Z AUTO 35012G18KT 10SM SCT029 SCT036 SCT045 00/M06 A3026 RMK AO2 T10011063
KPEA 261935Z AUTO 32013G19KT 10SM SCT027 BKN034 BKN041 00/M06 A3026 RMK AO2 T00001057
KPEA 261915Z AUTO 32011G14KT 10SM SCT024 BKN035 00/M05 A3026 RMK AO2 T00001053
KPEA 261855Z AUTO 34009KT 10SM SCT022 BKN029 BKN035 00/M05 A3027 RMK AO2 T00021047
KPEA 261835Z AUTO 33011G17KT 10SM BKN022 BKN029 00/M05 A3028 RMK AO2 T00001050
KPEA 261815Z AUTO 34011G15KT 10SM -SN SCT022 SCT027 00/M05 A3029 RMK AO2 T10051055
KPEA 261755Z AUTO 33012G17KT 10SM BKN020 BKN055 00/M05 A3029 RMK AO2 T10051050 11005 21035
KPEA 261735Z AUTO 32011G16KT 10SM BKN018 BKN023 BKN045 M01/M05 A3030 RMK AO2 T10081052
KPEA 261715Z AUTO 33014G20KT 10SM BKN018 BKN045 M01/M05 A3030 RMK AO2 T10111053
KPEA 261655Z AUTO 32014G17KT 10SM BKN016 M01/M05 A3030 RMK AO2 T10121054
KPEA 261635Z AUTO 33011G17KT 10SM OVC016 M01/M05 A3030 RMK AO2 T10151053
KPEA 261615Z AUTO 34010G18KT 10SM BKN016 M01/M05 A3029 RMK AO2 T10141055
KPEA 261555Z AUTO 34013KT 10SM BKN014 M02/M06 A3029 RMK AO2 T10171058
KPEA 261535Z AUTO 34011G17KT 10SM BKN014 M02/M05 A3029 RMK AO2 T10201054
KPEA 261515Z AUTO 34014G20KT 10SM BKN014 M02/M06 A3029 RMK AO2 T10221056
KPEA 261455Z AUTO 34010G17KT 10SM BKN014 M02/M06 A3029 RMK AO2 T10231056
KPEA 261435Z AUTO 34011KT 10SM BKN014 BKN055 M02/M05 A3028 RMK AO2 T10201050
KPEA 261415Z AUTO 34010KT 10SM SCT014 BKN055 M02/M05 A3028 RMK AO2 T10211052
KPEA 261355Z AUTO 34009G16KT 10SM SCT012 SCT055 M02/M05 A3027 RMK AO2 T10251047
KPEA 261335Z AUTO 33010KT 10SM BKN055 M03/M05 A3027 RMK AO2 T10281048
KPEA 261315Z AUTO 34008KT 10SM SCT055 M03/M05 A3026 RMK AO2 T10321050
KPEA 261255Z AUTO 33008KT 10SM CLR M03/M05 A3027 RMK AO2 T10341050
KPEA 261235Z AUTO 34009KT 10SM CLR M03/M05 A3026 RMK AO2 T10331050
KPEA 261215Z AUTO 34009G14KT 10SM CLR M03/M05 A3026 RMK AO2 T10311050
KPEA 261155Z AUTO 34008KT 10SM CLR M03/M05 A3026 RMK AO2 T10281050 11001 21028
KPEA 261135Z AUTO 34013KT 10SM CLR M02/M05 A3025 RMK AO2 T10241048
KPEA 261115Z AUTO 35011G17KT 10SM CLR M02/M05 A3025 RMK AO2 T10221048
KPEA 261055Z AUTO 35011G19KT 10SM CLR M02/M05 A3024 RMK AO2 T10211048
KPEA 261035Z AUTO 35012KT 10SM CLR M02/M05 A3024 RMK AO2 T10201050
KPEA 261015Z AUTO 34010KT 10SM CLR M02/M06 A3024 RMK AO2 T10201057
KPEA 260955Z AUTO 34008KT 10SM CLR M01/M06 A3023 RMK AO2 T10151060
KPEA 260935Z AUTO 35008KT 10SM CLR M01/M06 A3023 RMK AO2 T10121063
KPEA 260915Z AUTO 36009KT 10SM SCT060 M01/M06 A3023 RMK AO2 T10101061
KPEA 260855Z AUTO 36009G14KT 10SM BKN060 M01/M06 A3023 RMK AO2 T10071060
KPEA 260835Z AUTO 35009G15KT 10SM OVC060 M01/M06 A3023 RMK AO2 T10061060
KPEA 260815Z AUTO 36009G17KT 10SM BKN060 M01/M06 A3023 RMK AO2 T10061060
KPEA 260755Z AUTO 36010G15KT 10SM OVC060 M01/M06 A3023 RMK AO2 T10061059
KPEA 260735Z AUTO 36010G17KT 10SM OVC060 00/M06 A3023 RMK AO2 T10031056
KPEA 260715Z AUTO 01010G17KT 10SM OVC060 00/M05 A3023 RMK AO2 T10021055
KPEA 260655Z AUTO 36008G14KT 10SM OVC050 00/M05 A3024 RMK AO2 T10021053
KPEA 260635Z AUTO 36009KT 10SM OVC050 00/M05 A3023 RMK AO2 T10011052
KPEA 260615Z AUTO 35008G14KT 10SM OVC050 00/M05 A3023 RMK AO2 T10011050
KPEA 260555Z AUTO 35009KT 10SM OVC050 00/M05 A3023 RMK AO2 T10011050 10009 21001
KPEA 260535Z AUTO 35010G15KT 10SM BKN050 BKN060 00/M05 A3023 RMK AO2 T10011049
KPEA 260515Z AUTO 36010G15KT 10SM BKN048 OVC060 00/M05 A3024 RMK AO2 T00001051
KPEA 260455Z AUTO 35009KT 10SM OVC046 00/M05 A3024 RMK AO2 T00001048 400450000
KPEA 260435Z AUTO 36009G15KT 10SM OVC044 00/M05 A3023 RMK AO2 T00001048
KPEA 260415Z AUTO 36009G14KT 10SM OVC044 00/M05 A3023 RMK AO2 T00001046
KPEA 260355Z AUTO 36008G15KT 10SM BKN044 BKN049 00/M04 A3023 RMK AO2 T00001043
KPEA 260335Z AUTO 36008G14KT 10SM BKN047 00/M04 A3023 RMK AO2 T00001040
KPEA 260315Z AUTO 36009G16KT 10SM OVC042 00/M04 A3023 RMK AO2 T00001039
KPEA 260255Z AUTO 36009KT 10SM OVC040 00/M04 A3023 RMK AO2 T00001038
KPEA 260235Z AUTO 01008G14KT 10SM OVC040 00/M04 A3023 RMK AO2 T00001037
KPEA 260215Z AUTO 36009G16KT 10SM OVC040 00/M04 A3023 RMK AO2 T00001039
KPEA 260155Z AUTO 36012G17KT 10SM BKN040 00/M04 A3022 RMK AO2 T00001039
KPEA 260135Z AUTO 36012G16KT 10SM OVC036 00/M04 A3022 RMK AO2 T00021038
KPEA 260115Z AUTO 01009G16KT 10SM OVC036 00/M04 A3022 RMK AO2 T00031036
KPEA 260055Z AUTO 36009G15KT 10SM OVC036 01/M03 A3021 RMK AO2 T00051035
KPEA 260035Z AUTO 36011G17KT 10SM OVC034 01/M03 A3020 RMK AO2 T00061035
KPEA 260015Z AUTO 36009G15KT 10SM OVC034 01/M04 A3019 RMK AO2 T00081039
KPEA 252355Z AUTO 01009G14KT 10SM OVC034 01/M04 A3017 RMK AO2 T00101038 10045 20010
KPEA 252335Z AUTO 01013G16KT 10SM OVC032 01/M04 A3016 RMK AO2 T00111038
KPEA 252315Z AUTO 01009G16KT 10SM BKN030 01/M04 A3015 RMK AO2 T00121036
KPEA 252255Z AUTO 01011G17KT 10SM BKN030 02/M03 A3014 RMK AO2 T00151034
KPEA 252235Z AUTO 01014G21KT 10SM BKN030 02/M03 A3014 RMK AO2 T00171035
KPEA 252215Z AUTO 01013G20KT 10SM BKN028 02/M03 A3013 RMK AO2 T00221031
KPEA 252155Z AUTO 01012G17KT 10SM BKN028 03/M03 A3013 RMK AO2 T00251029
KPEA 252135Z AUTO 01013G21KT 10SM BKN028 03/M03 A3012 RMK AO2 T00271031
KPEA 252115Z AUTO 01015G20KT 10SM BKN026 03/M03 A3012 RMK AO2 T00271027
KPEA 252055Z AUTO 36013G20KT 10SM SCT026 03/M02 A3011 RMK AO2 T00301025
KPEA 252035Z AUTO 01012G20KT 10SM SCT026 03/M02 A3011 RMK AO2 T00321025
KPEA 252015Z AUTO 01013G20KT 10SM SCT028 SCT060 04/M02 A3010 RMK AO2 T00361022
KPEA 251955Z AUTO 36013G21KT 10SM SCT028 04/M02 A3009 RMK AO2 T00411022
KPEA 251935Z AUTO 03010G18KT 10SM SCT028 04/M03 A3009 RMK AO2 T00421027
KPEA 251915Z AUTO 02015G21KT 10SM SCT030 04/M02 A3009 RMK AO2 T00411024
KPEA 251855Z AUTO 03013G20KT 10SM CLR 04/M03 A3009 RMK AO2 T00401026
KPEA 251835Z AUTO 02008G17KT 10SM CLR 04/M02 A3009 RMK AO2 T00441020
KPEA 251815Z AUTO 02012G20KT 10SM CLR 04/M02 A3009 RMK AO2 T00391024
KPEA 251755Z AUTO 01016G20KT 10SM CLR 04/M03 A3009 RMK AO2 T00361028 10036 20000
KPEA 251735Z AUTO 03013G20KT 10SM CLR 04/M03 A3009 RMK AO2 T00351027
KPEA 251715Z AUTO 04012G18KT 10SM CLR 03/M03 A3008 RMK AO2 T00311028
KPEA 251655Z AUTO 03014G18KT 10SM CLR 03/M03 A3008 RMK AO2 T00271029
KPEA 251635Z AUTO 03014G21KT 10SM CLR 03/M03 A3007 RMK AO2 T00271028
KPEA 251615Z AUTO 04012G17KT 10SM CLR 03/M03 A3007 RMK AO2 T00251030
KPEA 251555Z AUTO 04008G17KT 10SM CLR 02/M03 A3007 RMK AO2 T00201030
KPEA 251535Z AUTO 04009G14KT 10SM CLR 02/M03 A3006 RMK AO2 T00151028
KPEA 251515Z AUTO 04008G15KT 10SM CLR 01/M03 A3006 RMK AO2 T00101027
KPEA 251455Z AUTO 03009G16KT 10SM CLR 01/M03 A3005 RMK AO2 T00081029
KPEA 251435Z AUTO 04008G14KT 10SM CLR 01/M03 A3005 RMK AO2 T00051029
KPEA 251415Z AUTO 03008G15KT 10SM CLR 00/M03 A3004 RMK AO2 T00041030
KPEA 251355Z AUTO 03008G14KT 10SM CLR 00/M03 A3003 RMK AO2 T00021031
KPEA 251335Z AUTO 03007G15KT 10SM CLR 00/M03 A3001 RMK AO2 T00001031
KPEA 251315Z AUTO 03008KT 10SM CLR 00/M03 A3000 RMK AO2 T00001032
KPEA 251255Z AUTO 02008KT 10SM CLR 00/M03 A3000 RMK AO2 T00001032
KPEA 251235Z AUTO 03007KT 10SM CLR 00/M03 A2999 RMK AO2 T00001033
KPEA 251215Z AUTO 03008KT 10SM CLR 00/M03 A2999 RMK AO2 T00001033
KPEA 251155Z AUTO 02008KT 10SM CLR 00/M03 A2998 RMK AO2 T00001035 10004 20000